Time;durP1;ratioP1;P1;durP2;ratioP2;P2;SDS_P1;SDS_P2;PMS_P1;PMS_P2;Temp;Humidity;BMP_temperature;BMP_pressure;BME280_temperature;BME280_humidity;BME280_pressure;Samples;Min_cycle;Max_cycle;Signal;HPM_P1;HPM_P2
2023/12/02 00:02:04;;;;;;;62.07;27.20;;;;;;;;;;5002244;28;20037;-70
2023/12/02 00:04:30;;;;;;;65.67;25.30;;;;;;;;;;5009406;28;20052;-71
2023/12/02 00:06:55;;;;;;;62.70;27.13;;;;;;;;;;5009364;28;20112;-71
2023/12/02 00:09:21;;;;;;;62.10;27.00;;;;;;;;;;5010689;28;20041;-71
2023/12/02 00:11:52;;;;;;;68.27;26.53;;;;;;;;;;5008749;28;20049;-73
2023/12/02 00:14:17;;;;;;;62.55;26.85;;;;;;;;;;5010385;28;20038;-72
2023/12/02 00:16:43;;;;;;;64.93;23.43;;;;;;;;;;5009168;28;20463;-70
2023/12/02 00:19:08;;;;;;;63.93;26.23;;;;;;;;;;5009231;28;20127;-69
2023/12/02 00:21:34;;;;;;;61.37;25.60;;;;;;;;;;5011846;28;20033;-70
2023/12/02 00:24:02;;;;;;;61.57;26.17;;;;;;;;;;4995794;28;20497;-71
2023/12/02 00:26:27;;;;;;;58.83;24.93;;;;;;;;;;4992683;28;20372;-70
2023/12/02 00:28:53;;;;;;;56.73;25.00;;;;;;;;;;4989267;28;20033;-70
2023/12/02 00:31:18;;;;;;;63.43;26.40;;;;;;;;;;4989213;28;20049;-71
2023/12/02 00:33:44;;;;;;;63.77;23.37;;;;;;;;;;4990728;28;20022;-71
2023/12/02 00:36:10;;;;;;;60.60;24.70;;;;;;;;;;5008717;28;20025;-71
2023/12/02 00:38:35;;;;;;;58.23;24.70;;;;;;;;;;5008456;28;20040;-71
2023/12/02 00:41:01;;;;;;;63.23;26.17;;;;;;;;;;5010450;28;20358;-71
2023/12/02 00:43:27;;;;;;;58.97;24.80;;;;;;;;;;5009981;28;20030;-69
2023/12/02 00:45:52;;;;;;;57.03;27.13;;;;;;;;;;5004565;28;20482;-69
2023/12/02 00:48:18;;;;;;;62.10;26.57;;;;;;;;;;5005290;28;20038;-72
2023/12/02 00:50:43;;;;;;;60.70;24.83;;;;;;;;;;4990399;28;20026;-71
2023/12/02 00:53:09;;;;;;;60.67;26.20;;;;;;;;;;4990100;28;20383;-71
2023/12/02 00:55:35;;;;;;;63.13;28.63;;;;;;;;;;4989100;28;20037;-70
2023/12/02 00:58:00;;;;;;;65.57;26.73;;;;;;;;;;4998464;28;20441;-72
2023/12/02 01:00:27;;;;;;;56.87;24.37;;;;;;;;;;5009574;28;20033;-72
2023/12/02 01:02:52;;;;;;;58.17;25.40;;;;;;;;;;4990877;28;20038;-73
2023/12/02 01:05:21;;;;;;;55.00;25.50;;;;;;;;;;4988599;28;20061;-70
2023/12/02 01:07:46;;;;;;;55.80;24.93;;;;;;;;;;4988784;28;20464;-71
2023/12/02 01:10:12;;;;;;;60.20;24.13;;;;;;;;;;5001320;28;20060;-72
2023/12/02 01:12:40;;;;;;;52.83;24.03;;;;;;;;;;5008357;28;20117;-71
2023/12/02 01:15:06;;;;;;;56.97;24.83;;;;;;;;;;5009619;28;20114;-72
2023/12/02 01:17:32;;;;;;;50.67;23.80;;;;;;;;;;5009240;28;20121;-72
2023/12/02 01:19:57;;;;;;;59.57;25.63;;;;;;;;;;5009448;28;20525;-70
2023/12/02 01:22:23;;;;;;;53.90;23.80;;;;;;;;;;4994404;28;20034;-71
2023/12/02 01:24:48;;;;;;;63.03;23.80;;;;;;;;;;4989888;28;20022;-71
2023/12/02 01:27:14;;;;;;;56.97;24.43;;;;;;;;;;4989736;28;20459;-72
2023/12/02 01:29:39;;;;;;;61.10;24.43;;;;;;;;;;4990016;28;20026;-72
2023/12/02 01:32:05;;;;;;;46.60;21.37;;;;;;;;;;4990497;28;20026;-71
2023/12/02 01:34:31;;;;;;;60.37;25.73;;;;;;;;;;4988893;28;20034;-71
2023/12/02 01:36:57;;;;;;;55.80;23.87;;;;;;;;;;4988570;28;20543;-72
2023/12/02 01:39:22;;;;;;;58.33;23.17;;;;;;;;;;4989691;28;20034;-70
2023/12/02 01:41:48;;;;;;;58.13;24.30;;;;;;;;;;4988360;28;20029;-71
2023/12/02 01:44:14;;;;;;;60.73;25.97;;;;;;;;;;4987912;28;20027;-69
2023/12/02 01:46:39;;;;;;;57.83;24.37;;;;;;;;;;5004155;28;20029;-68
2023/12/02 01:49:07;;;;;;;60.47;25.73;;;;;;;;;;5009028;28;20485;-72
2023/12/02 01:51:32;;;;;;;56.70;24.90;;;;;;;;;;5007578;28;20025;-70
2023/12/02 01:53:58;;;;;;;54.73;24.10;;;;;;;;;;5008094;28;20036;-72
2023/12/02 01:56:23;;;;;;;59.57;23.20;;;;;;;;;;5009923;28;20604;-71
2023/12/02 01:58:50;;;;;;;62.97;25.50;;;;;;;;;;4997262;28;20045;-71
2023/12/02 02:01:15;;;;;;;54.23;26.47;;;;;;;;;;4997795;28;20022;-70
2023/12/02 02:03:41;;;;;;;55.20;23.83;;;;;;;;;;5011796;28;20368;-71
2023/12/02 02:06:10;;;;;;;57.60;25.63;;;;;;;;;;5012873;28;20372;-70
2023/12/02 02:08:36;;;;;;;62.73;24.57;;;;;;;;;;5011438;28;20364;-71
2023/12/02 02:11:02;;;;;;;57.10;25.97;;;;;;;;;;4996991;28;20446;-69
2023/12/02 02:13:28;;;;;;;57.00;24.40;;;;;;;;;;5012942;28;20057;-70
2023/12/02 02:15:54;;;;;;;56.77;25.47;;;;;;;;;;5012731;28;20046;-71
2023/12/02 02:18:20;;;;;;;60.07;25.03;;;;;;;;;;5011450;28;20117;-70
2023/12/02 02:20:53;;;;;;;68.00;27.03;;;;;;;;;;5010657;28;20121;-72
2023/12/02 02:23:19;;;;;;;55.10;24.03;;;;;;;;;;5011088;28;20104;-70
2023/12/02 02:25:45;;;;;;;55.33;24.03;;;;;;;;;;5011244;28;20132;-70
2023/12/02 02:28:11;;;;;;;57.10;23.40;;;;;;;;;;5011360;28;20533;-71
2023/12/02 02:30:37;;;;;;;62.53;25.37;;;;;;;;;;5012548;28;20033;-70
2023/12/02 02:33:02;;;;;;;63.93;25.17;;;;;;;;;;5009219;28;20462;-71
2023/12/02 02:35:28;;;;;;;64.37;25.80;;;;;;;;;;4991462;28;20053;-70
2023/12/02 02:37:53;;;;;;;56.83;24.20;;;;;;;;;;4991674;28;20041;-70
2023/12/02 02:40:19;;;;;;;57.67;25.63;;;;;;;;;;4991341;28;20037;-71
2023/12/02 02:42:45;;;;;;;56.90;23.13;;;;;;;;;;4991438;28;20026;-71
2023/12/02 02:45:11;;;;;;;56.37;23.80;;;;;;;;;;4993035;28;20102;-70
2023/12/02 02:47:37;;;;;;;58.17;25.23;;;;;;;;;;5012237;28;20144;-69
2023/12/02 02:50:03;;;;;;;58.27;26.23;;;;;;;;;;5012354;28;20483;-69
2023/12/02 02:52:28;;;;;;;52.83;25.10;;;;;;;;;;5011098;28;20033;-69
2023/12/02 02:54:54;;;;;;;67.33;25.80;;;;;;;;;;5015345;28;20607;-69
2023/12/02 02:57:22;;;;;;;56.70;26.77;;;;;;;;;;5010292;28;20066;-70
2023/12/02 02:59:48;;;;;;;58.47;27.77;;;;;;;;;;4991067;28;20022;-71
2023/12/02 03:02:14;;;;;;;56.27;24.80;;;;;;;;;;5005032;28;20028;-70
2023/12/02 03:04:39;;;;;;;66.27;26.87;;;;;;;;;;5010013;28;20032;-72
2023/12/02 03:07:05;;;;;;;57.90;25.67;;;;;;;;;;5010541;28;20062;-71
2023/12/02 03:09:30;;;;;;;54.90;23.37;;;;;;;;;;5007309;28;20069;-71
2023/12/02 03:11:56;;;;;;;62.93;24.20;;;;;;;;;;4992921;28;20058;-72
2023/12/02 03:14:23;;;;;;;56.63;24.97;;;;;;;;;;4995061;28;20331;-71
2023/12/02 03:16:49;;;;;;;63.27;25.13;;;;;;;;;;4991847;28;20058;-70
2023/12/02 03:19:14;;;;;;;66.33;26.50;;;;;;;;;;4992213;28;20408;-69
2023/12/02 03:21:40;;;;;;;60.90;25.33;;;;;;;;;;4995458;28;20151;-71
2023/12/02 03:24:06;;;;;;;51.97;23.77;;;;;;;;;;5010204;28;20375;-69
2023/12/02 03:26:34;;;;;;;64.27;24.70;;;;;;;;;;5009914;28;20437;-71
2023/12/02 03:29:00;;;;;;;59.63;25.87;;;;;;;;;;5011406;28;20041;-71
2023/12/02 03:31:25;;;;;;;52.93;25.20;;;;;;;;;;5009973;28;20100;-72
2023/12/02 03:33:52;;;;;;;50.63;23.77;;;;;;;;;;5007462;28;20186;-71
2023/12/02 03:36:17;;;;;;;66.10;26.57;;;;;;;;;;4991640;28;20022;-72
2023/12/02 03:38:43;;;;;;;57.13;25.00;;;;;;;;;;4991770;28;20092;-70
2023/12/02 03:41:08;;;;;;;54.17;23.80;;;;;;;;;;5006297;28;20105;-71
2023/12/02 03:43:35;;;;;;;57.37;24.53;;;;;;;;;;5006402;28;20069;-72
2023/12/02 03:46:01;;;;;;;50.93;24.17;;;;;;;;;;4992164;28;20112;-72
2023/12/02 03:48:27;;;;;;;50.30;23.70;;;;;;;;;;4990069;28;20026;-70
2023/12/02 03:50:53;;;;;;;59.70;27.63;;;;;;;;;;4991556;28;20359;-70
2023/12/02 03:53:19;;;;;;;54.30;24.97;;;;;;;;;;4991539;28;20038;-69
2023/12/02 03:55:45;;;;;;;62.17;25.47;;;;;;;;;;4991695;28;20399;-70
2023/12/02 03:58:10;;;;;;;52.67;23.47;;;;;;;;;;4998495;28;20029;-69
2023/12/02 04:00:36;;;;;;;49.90;21.80;;;;;;;;;;5010718;28;20052;-69
2023/12/02 04:03:02;;;;;;;55.07;22.80;;;;;;;;;;4990075;28;20036;-69
2023/12/02 04:05:27;;;;;;;57.23;24.03;;;;;;;;;;5005757;28;20030;-71
2023/12/02 04:07:53;;;;;;;53.53;25.57;;;;;;;;;;4989719;28;20026;-71
2023/12/02 04:10:19;;;;;;;55.27;24.73;;;;;;;;;;5012726;28;20057;-69
2023/12/02 04:12:44;;;;;;;52.93;24.43;;;;;;;;;;5008967;28;20470;-71
2023/12/02 04:15:10;;;;;;;56.87;24.07;;;;;;;;;;5009123;28;20026;-71
2023/12/02 04:17:36;;;;;;;53.97;23.87;;;;;;;;;;5013394;28;20592;-69
2023/12/02 04:20:08;;;;;;;51.43;23.70;;;;;;;;;;5012004;28;20057;-69
2023/12/02 04:22:35;;;;;;;56.57;24.67;;;;;;;;;;5006289;28;20034;-69
2023/12/02 04:25:01;;;;;;;59.93;25.17;;;;;;;;;;4993271;28;20026;-69
2023/12/02 04:27:26;;;;;;;54.10;22.30;;;;;;;;;;4993782;28;20026;-70
2023/12/02 04:29:52;;;;;;;58.53;22.37;;;;;;;;;;4991764;28;20026;-70
2023/12/02 04:32:18;;;;;;;56.47;23.57;;;;;;;;;;5007562;28;20498;-70
2023/12/02 04:34:43;;;;;;;60.57;24.70;;;;;;;;;;5007480;28;20062;-70
2023/12/02 04:37:09;;;;;;;47.67;21.77;;;;;;;;;;4990914;28;20026;-70
2023/12/02 04:39:34;;;;;;;53.13;24.43;;;;;;;;;;4990974;28;20069;-68
2023/12/02 04:42:00;;;;;;;50.27;23.40;;;;;;;;;;5007171;28;20053;-68
2023/12/02 04:44:25;;;;;;;43.10;20.50;;;;;;;;;;4990393;28;20022;-70
2023/12/02 04:46:51;;;;;;;58.47;22.20;;;;;;;;;;4991927;28;20161;-70
2023/12/02 04:49:17;;;;;;;46.10;22.47;;;;;;;;;;5006184;28;20072;-70
2023/12/02 04:51:42;;;;;;;51.30;23.13;;;;;;;;;;4989818;28;20511;-71
2023/12/02 04:54:09;;;;;;;45.27;21.67;;;;;;;;;;4989109;28;20097;-71
2023/12/02 04:56:36;;;;;;;56.27;23.30;;;;;;;;;;4988608;28;20053;-70
2023/12/02 04:59:01;;;;;;;49.03;19.07;;;;;;;;;;5020660;28;20112;-70
2023/12/02 05:01:27;;;;;;;42.90;22.17;;;;;;;;;;5000588;28;20571;-71
2023/12/02 05:03:52;;;;;;;46.73;20.90;;;;;;;;;;4988738;28;20057;-69
2023/12/02 05:06:18;;;;;;;49.90;21.93;;;;;;;;;;4988884;28;20489;-71
2023/12/02 05:08:46;;;;;;;48.13;20.40;;;;;;;;;;4989396;28;20497;-69
2023/12/02 05:11:20;;;;;;;42.47;20.50;;;;;;;;;;5009307;28;20467;-69
2023/12/02 05:13:46;;;;;;;37.33;18.37;;;;;;;;;;5008789;28;20496;-70
2023/12/02 05:16:12;;;;;;;40.67;16.97;;;;;;;;;;5009786;28;20049;-69
2023/12/02 05:18:41;;;;;;;47.83;20.30;;;;;;;;;;5009653;28;20080;-70
2023/12/02 05:21:09;;;;;;;44.30;20.00;;;;;;;;;;5006438;28;20046;-70
2023/12/02 05:23:41;;;;;;;45.13;20.20;;;;;;;;;;4990693;28;20019;-69
2023/12/02 05:26:07;;;;;;;46.97;19.92;;;;;;;;;;5015016;28;20106;-69
2023/12/02 05:28:33;;;;;;;42.10;18.57;;;;;;;;;;5011357;28;20030;-71
2023/12/02 05:30:58;;;;;;;42.23;17.40;;;;;;;;;;4989885;28;20408;-69
2023/12/02 05:33:24;;;;;;;39.80;18.30;;;;;;;;;;4988491;28;20031;-74
2023/12/02 05:35:50;;;;;;;41.10;18.60;;;;;;;;;;4989937;28;20129;-70
2023/12/02 05:38:15;;;;;;;35.47;17.57;;;;;;;;;;4988321;28;20061;-70
2023/12/02 05:40:41;;;;;;;34.97;16.57;;;;;;;;;;4989519;28;20023;-70
2023/12/02 05:43:07;;;;;;;41.67;18.60;;;;;;;;;;4989577;28;20117;-69
2023/12/02 05:45:32;;;;;;;35.33;16.33;;;;;;;;;;4988480;28;20042;-70
2023/12/02 05:47:58;;;;;;;36.57;17.37;;;;;;;;;;4989717;28;20399;-71
2023/12/02 05:50:23;;;;;;;36.43;16.93;;;;;;;;;;4989967;28;20536;-71
2023/12/02 05:52:49;;;;;;;33.43;15.77;;;;;;;;;;4988359;28;20052;-71
2023/12/02 05:55:15;;;;;;;30.50;15.63;;;;;;;;;;4989876;28;20560;-70
2023/12/02 05:57:43;;;;;;;33.10;16.80;;;;;;;;;;5000526;28;20057;-70
2023/12/02 06:00:09;;;;;;;35.10;14.27;;;;;;;;;;5008432;28;20026;-70
2023/12/02 06:02:34;;;;;;;35.87;15.10;;;;;;;;;;4992700;28;20494;-70
2023/12/02 06:05:00;;;;;;;35.43;16.70;;;;;;;;;;5009212;28;20030;-71
2023/12/02 06:07:26;;;;;;;33.23;15.40;;;;;;;;;;5007645;28;20034;-74
2023/12/02 06:09:51;;;;;;;29.37;14.67;;;;;;;;;;4996952;28;20038;-70
2023/12/02 06:12:17;;;;;;;29.73;14.47;;;;;;;;;;4990335;28;20536;-68
2023/12/02 06:14:43;;;;;;;32.70;14.67;;;;;;;;;;4989546;28;20026;-69
2023/12/02 06:17:09;;;;;;;35.90;19.00;;;;;;;;;;4988750;28;20065;-69
2023/12/02 06:19:34;;;;;;;35.90;14.87;;;;;;;;;;4987963;28;20030;-71
2023/12/02 06:22:00;;;;;;;40.10;15.93;;;;;;;;;;5002829;28;20435;-70
2023/12/02 06:24:25;;;;;;;35.03;15.70;;;;;;;;;;5007742;28;20389;-70
2023/12/02 06:26:51;;;;;;;35.10;15.70;;;;;;;;;;5008425;28;20093;-71
2023/12/02 06:29:16;;;;;;;30.17;13.93;;;;;;;;;;5009437;28;20536;-70
2023/12/02 06:31:42;;;;;;;33.30;15.57;;;;;;;;;;5007260;28;20033;-70
2023/12/02 06:34:07;;;;;;;31.43;15.10;;;;;;;;;;4993689;28;20026;-70
2023/12/02 06:36:33;;;;;;;33.80;14.07;;;;;;;;;;4988797;28;20109;-71
2023/12/02 06:38:59;;;;;;;30.00;14.17;;;;;;;;;;5003930;28;20081;-71
2023/12/02 06:41:24;;;;;;;33.87;14.20;;;;;;;;;;4989145;28;20022;-70
2023/12/02 06:43:50;;;;;;;29.30;14.67;;;;;;;;;;4991529;28;20057;-71
2023/12/02 06:46:20;;;;;;;28.27;12.10;;;;;;;;;;5007902;28;20038;-70
2023/12/02 06:48:46;;;;;;;27.40;13.47;;;;;;;;;;4992476;28;20038;-70
2023/12/02 06:51:11;;;;;;;34.30;14.47;;;;;;;;;;4990763;28;20030;-71
2023/12/02 06:53:37;;;;;;;28.73;12.33;;;;;;;;;;4992355;28;20045;-70
2023/12/02 06:56:02;;;;;;;36.47;13.87;;;;;;;;;;4992604;28;20018;-71
2023/12/02 06:58:28;;;;;;;32.80;14.40;;;;;;;;;;5008036;28;20034;-70
2023/12/02 07:00:54;;;;;;;31.73;14.67;;;;;;;;;;5007734;28;20033;-71
2023/12/02 07:03:21;;;;;;;34.87;15.10;;;;;;;;;;4991127;28;20038;-70
2023/12/02 07:05:47;;;;;;;30.93;13.50;;;;;;;;;;4997253;28;20064;-71
2023/12/02 07:08:13;;;;;;;27.10;12.80;;;;;;;;;;4995935;28;20026;-69
2023/12/02 07:10:39;;;;;;;34.20;14.17;;;;;;;;;;5007874;28;20033;-68
2023/12/02 07:13:05;;;;;;;33.00;13.50;;;;;;;;;;5015561;28;20064;-70
2023/12/02 07:15:32;;;;;;;27.43;13.33;;;;;;;;;;5015351;28;20117;-69
2023/12/02 07:17:58;;;;;;;33.13;13.30;;;;;;;;;;5015445;28;20021;-68
2023/12/02 07:20:24;;;;;;;30.67;12.40;;;;;;;;;;5017455;28;20048;-68
2023/12/02 07:22:51;;;;;;;27.90;13.17;;;;;;;;;;5000042;28;20083;-70
2023/12/02 07:25:18;;;;;;;28.30;13.20;;;;;;;;;;4999045;28;20046;-69
2023/12/02 07:27:43;;;;;;;25.03;13.80;;;;;;;;;;5012091;28;20537;-69
2023/12/02 07:30:15;;;;;;;35.67;14.87;;;;;;;;;;4997995;28;20022;-68
2023/12/02 07:32:43;;;;;;;28.80;12.50;;;;;;;;;;5012817;28;20026;-68
2023/12/02 07:35:09;;;;;;;27.13;13.67;;;;;;;;;;5016561;28;20040;-70
2023/12/02 07:37:35;;;;;;;27.17;12.63;;;;;;;;;;5017738;28;20546;-71
2023/12/02 07:40:04;;;;;;;24.90;10.93;;;;;;;;;;5015256;28;20064;-69
2023/12/02 07:42:33;;;;;;;26.80;11.70;;;;;;;;;;5016230;28;20489;-71
2023/12/02 07:44:59;;;;;;;26.73;12.03;;;;;;;;;;5014148;28;20030;-69
2023/12/02 07:47:26;;;;;;;22.23;9.93;;;;;;;;;;5013462;28;20037;-69
2023/12/02 07:49:52;;;;;;;23.00;10.47;;;;;;;;;;5014721;28;20368;-70
2023/12/02 07:52:18;;;;;;;27.40;11.40;;;;;;;;;;5016408;28;20041;-69
2023/12/02 07:54:44;;;;;;;18.20;9.77;;;;;;;;;;5013318;28;20026;-69
2023/12/02 07:57:09;;;;;;;25.93;11.20;;;;;;;;;;5011187;28;20034;-69
2023/12/02 07:59:35;;;;;;;24.73;10.67;;;;;;;;;;4999992;28;20112;-70
2023/12/02 08:02:02;;;;;;;22.17;10.20;;;;;;;;;;5023992;28;20120;-70
2023/12/02 08:04:27;;;;;;;18.63;9.20;;;;;;;;;;5014120;28;20029;-70
2023/12/02 08:06:53;;;;;;;22.23;9.03;;;;;;;;;;5013884;28;20026;-69
2023/12/02 08:09:19;;;;;;;22.33;10.60;;;;;;;;;;5008500;28;20022;-70
2023/12/02 08:11:48;;;;;;;26.77;12.43;;;;;;;;;;4996764;28;20026;-69
2023/12/02 08:14:18;;;;;;;23.33;11.00;;;;;;;;;;5014264;28;20053;-69
2023/12/02 08:16:51;;;;;;;16.03;9.67;;;;;;;;;;5013442;28;20353;-70
2023/12/02 08:19:17;;;;;;;18.47;9.27;;;;;;;;;;5014026;28;20034;-69
2023/12/02 08:21:45;;;;;;;22.53;8.80;;;;;;;;;;5009792;28;20037;-68
2023/12/02 08:24:15;;;;;;;20.13;10.67;;;;;;;;;;5010137;28;20029;-72
2023/12/02 08:26:43;;;;;;;20.40;8.77;;;;;;;;;;5017924;28;20041;-70
2023/12/02 08:29:13;;;;;;;20.93;8.73;;;;;;;;;;5017289;28;20501;-69
2023/12/02 08:31:45;;;;;;;20.98;9.10;;;;;;;;;;5018051;28;20026;-71
2023/12/02 08:34:14;;;;;;;21.40;9.63;;;;;;;;;;5017806;28;20049;-70
2023/12/02 08:36:41;;;;;;;16.23;8.47;;;;;;;;;;5016938;28;20466;-71
2023/12/02 08:39:11;;;;;;;15.97;8.07;;;;;;;;;;5017974;28;20034;-69
2023/12/02 08:41:49;;;;;;;17.67;8.97;;;;;;;;;;5034455;28;20041;-70
2023/12/02 08:44:19;;;;;;;19.53;9.97;;;;;;;;;;5017501;28;20032;-70
2023/12/02 08:46:54;;;;;;;17.43;9.07;;;;;;;;;;5002532;28;20057;-70
2023/12/02 08:49:21;;;;;;;19.30;8.63;;;;;;;;;;4997053;28;20029;-70
2023/12/02 08:51:48;;;;;;;20.37;8.73;;;;;;;;;;4995002;28;20026;-68
2023/12/02 08:54:14;;;;;;;18.27;8.93;;;;;;;;;;4995064;28;20039;-72
2023/12/02 08:56:45;;;;;;;17.23;9.00;;;;;;;;;;4996707;28;20029;-70
2023/12/02 08:59:10;;;;;;;16.57;8.60;;;;;;;;;;5014805;28;20033;-69
2023/12/02 09:01:36;;;;;;;17.90;8.40;;;;;;;;;;5005712;28;20044;-74
2023/12/02 09:04:03;;;;;;;16.00;9.77;;;;;;;;;;4994049;28;20135;-71
2023/12/02 09:06:30;;;;;;;18.90;8.50;;;;;;;;;;4993836;28;20169;-70
2023/12/02 09:08:58;;;;;;;19.03;8.03;;;;;;;;;;4993753;28;20065;-69
2023/12/02 09:11:28;;;;;;;17.83;8.33;;;;;;;;;;5010220;28;20073;-73
2023/12/02 09:13:55;;;;;;;19.53;8.20;;;;;;;;;;4994846;28;20491;-70
2023/12/02 09:16:25;;;;;;;22.40;9.13;;;;;;;;;;4995204;28;20084;-70
2023/12/02 09:18:52;;;;;;;18.87;7.77;;;;;;;;;;4993647;28;20030;-71
2023/12/02 09:21:30;;;;;;;14.97;8.50;;;;;;;;;;4999087;28;20181;-69
2023/12/02 09:24:01;;;;;;;18.03;8.43;;;;;;;;;;4995414;28;20117;-71
2023/12/02 09:26:36;;;;;;;15.80;7.93;;;;;;;;;;4996304;28;20034;-68
2023/12/02 09:29:03;;;;;;;14.40;7.83;;;;;;;;;;4993830;28;20038;-71
2023/12/02 09:31:29;;;;;;;15.67;7.60;;;;;;;;;;4993749;28;20030;-71
2023/12/02 09:34:02;;;;;;;19.40;8.10;;;;;;;;;;4993470;28;20490;-70
2023/12/02 09:36:35;;;;;;;20.17;7.87;;;;;;;;;;4995790;28;20081;-70
2023/12/02 09:39:24;;;;;;;16.53;7.97;;;;;;;;;;5010100;28;20121;-68
2023/12/02 09:41:53;;;;;;;17.83;7.43;;;;;;;;;;4994711;28;20069;-70
2023/12/02 09:44:46;;;;;;;15.17;8.10;;;;;;;;;;4997856;28;20034;-70
2023/12/02 09:47:21;;;;;;;19.47;9.50;;;;;;;;;;4996562;28;20092;-71
2023/12/02 09:50:01;;;;;;;22.47;9.30;;;;;;;;;;4994866;28;20037;-69
2023/12/02 09:52:58;;;;;;;17.37;9.37;;;;;;;;;;4997111;28;20057;-71
2023/12/02 09:55:47;;;;;;;17.20;8.47;;;;;;;;;;4996239;28;20022;-69
2023/12/02 09:58:24;;;;;;;16.53;8.63;;;;;;;;;;5013137;28;20102;-70
2023/12/02 10:01:02;;;;;;;16.63;8.60;;;;;;;;;;5015939;28;20034;-72
2023/12/02 10:03:48;;;;;;;18.90;8.27;;;;;;;;;;5017209;28;20091;-74
2023/12/02 10:06:38;;;;;;;12.30;7.77;;;;;;;;;;5016987;28;20038;-71
2023/12/02 10:09:20;;;;;;;16.57;7.63;;;;;;;;;;5014986;28;20032;-70
2023/12/02 10:12:00;;;;;;;;;;;;;;;;;;5015016;28;20124;-73
2023/12/02 10:14:28;;;;;;;19.23;8.13;;;;;;;;;;5016054;28;19967;-71
2023/12/02 10:17:06;;;;;;;18.07;8.23;;;;;;;;;;5016584;28;20052;-71
2023/12/02 10:19:56;;;;;;;26.03;10.53;;;;;;;;;;5020128;28;20035;-70
2023/12/02 10:22:37;;;;;;;20.17;9.30;;;;;;;;;;5001946;28;20034;-72
2023/12/02 10:25:13;;;;;;;23.73;9.63;;;;;;;;;;5000376;28;20086;-69
2023/12/02 10:27:45;;;;;;;23.10;9.20;;;;;;;;;;5001860;28;20049;-69
2023/12/02 10:30:22;;;;;;;22.83;10.07;;;;;;;;;;4999243;28;20027;-70
2023/12/02 10:33:09;;;;;;;21.70;10.80;;;;;;;;;;5001368;28;20030;-71
2023/12/02 10:35:43;;;;;;;21.83;11.17;;;;;;;;;;4998728;28;20034;-71
2023/12/02 10:38:36;;;;;;;22.63;9.40;;;;;;;;;;4998915;28;20105;-70
2023/12/02 10:41:23;;;;;;;22.87;9.83;;;;;;;;;;4997620;28;20026;-72
2023/12/02 10:43:58;;;;;;;20.53;11.20;;;;;;;;;;4998286;28;20022;-70
2023/12/02 10:46:31;;;;;;;19.67;9.53;;;;;;;;;;4997169;28;20026;-71
2023/12/02 10:49:00;;;;;;;22.00;9.30;;;;;;;;;;5014052;28;20121;-70
2023/12/02 10:51:42;;;;;;;23.67;9.40;;;;;;;;;;4982769;28;20407;-68
2023/12/02 10:54:10;;;;;;;;;;;;;;;;;;5016325;28;20082;-70
2023/12/02 10:56:46;;;;;;;22.10;10.53;;;;;;;;;;5000936;28;19917;-68
2023/12/02 10:59:19;;;;;;;17.77;10.23;;;;;;;;;;5007652;28;20018;-68
2023/12/02 11:02:09;;;;;;;21.17;10.37;;;;;;;;;;4997214;28;20026;-69
2023/12/02 11:04:46;;;;;;;21.40;9.27;;;;;;;;;;4999641;28;20041;-71
2023/12/02 11:07:21;;;;;;;22.80;9.13;;;;;;;;;;4998003;28;20146;-70
2023/12/02 11:10:04;;;;;;;24.50;11.50;;;;;;;;;;5013424;28;20068;-70
2023/12/02 11:13:04;;;;;;;23.53;10.53;;;;;;;;;;5007880;28;20075;-69
2023/12/02 11:15:41;;;;;;;24.57;10.20;;;;;;;;;;5006654;28;20053;-74
2023/12/02 11:18:11;;;;;;;22.60;10.67;;;;;;;;;;5016487;28;20063;-72
2023/12/02 11:20:53;;;;;;;17.73;11.23;;;;;;;;;;5033534;28;20036;-69
2023/12/02 11:23:47;;;;;;;18.98;10.85;;;;;;;;;;5017332;28;20037;-70
2023/12/02 11:26:24;;;;;;;24.03;11.23;;;;;;;;;;5031590;28;20026;-69
2023/12/02 11:29:24;;;;;;;22.10;10.97;;;;;;;;;;5015748;28;20041;-69
2023/12/02 11:32:11;;;;;;;21.93;10.73;;;;;;;;;;4999078;28;20061;-69
2023/12/02 11:35:16;;;;;;;25.03;11.60;;;;;;;;;;4996637;28;20041;-69
2023/12/02 11:37:44;;;;;;;20.67;10.13;;;;;;;;;;4997364;28;20527;-70
2023/12/02 11:40:21;;;;;;;21.13;10.10;;;;;;;;;;4998372;28;20387;-70
2023/12/02 11:43:22;;;;;;;21.33;10.07;;;;;;;;;;4996992;28;20069;-69
2023/12/02 11:45:57;;;;;;;22.30;10.33;;;;;;;;;;4997186;28;20022;-71
2023/12/02 11:48:47;;;;;;;24.23;10.60;;;;;;;;;;4996970;28;20041;-72
2023/12/02 11:51:21;;;;;;;22.43;10.77;;;;;;;;;;4996449;28;20030;-68
2023/12/02 11:54:16;;;;;;;28.00;11.93;;;;;;;;;;5013589;28;20235;-72
2023/12/02 11:57:19;;;;;;;21.70;11.43;;;;;;;;;;5017560;28;20116;-70
2023/12/02 12:00:06;;;;;;;17.48;9.20;;;;;;;;;;4993759;28;20062;-68
2023/12/02 12:03:05;;;;;;;19.17;9.10;;;;;;;;;;5001933;28;20487;-71
2023/12/02 12:05:42;;;;;;;23.50;10.53;;;;;;;;;;4997145;28;20028;-71
2023/12/02 12:08:24;;;;;;;16.47;9.83;;;;;;;;;;4995721;28;20030;-69
2023/12/02 12:10:54;;;;;;;25.92;9.68;;;;;;;;;;4997138;28;20026;-69
2023/12/02 12:13:25;;;;;;;19.10;8.53;;;;;;;;;;5017360;28;20098;-71
2023/12/02 12:15:52;;;;;;;21.17;9.57;;;;;;;;;;5015869;28;20421;-70
2023/12/02 12:18:20;;;;;;;17.90;9.07;;;;;;;;;;5018307;28;20029;-70
2023/12/02 12:20:55;;;;;;;16.43;9.93;;;;;;;;;;5015350;28;20045;-73
2023/12/02 12:23:28;;;;;;;21.30;9.15;;;;;;;;;;5016830;28;20036;-70
2023/12/02 12:25:59;;;;;;;19.10;10.17;;;;;;;;;;5016904;28;20045;-68
2023/12/02 12:28:28;;;;;;;18.20;9.50;;;;;;;;;;5015325;28;20029;-72
2023/12/02 12:30:56;;;;;;;17.70;9.43;;;;;;;;;;5014890;28;20037;-69
2023/12/02 12:33:26;;;;;;;19.20;10.07;;;;;;;;;;4999721;28;20136;-72
2023/12/02 12:35:51;;;;;;;19.63;9.37;;;;;;;;;;5016542;28;20030;-71
2023/12/02 12:38:20;;;;;;;20.77;10.33;;;;;;;;;;5016573;28;20033;-71
2023/12/02 12:40:46;;;;;;;24.10;9.80;;;;;;;;;;5016340;28;20125;-70
2023/12/02 12:43:21;;;;;;;21.47;9.93;;;;;;;;;;5016572;28;20070;-71
2023/12/02 12:45:54;;;;;;;22.57;11.70;;;;;;;;;;5016148;28;20026;-70
2023/12/02 12:48:30;;;;;;;19.17;9.33;;;;;;;;;;5003256;28;20062;-69
2023/12/02 12:51:02;;;;;;;16.50;8.93;;;;;;;;;;5001393;28;20347;-71
2023/12/02 12:53:35;;;;;;;20.80;9.57;;;;;;;;;;4995562;28;20030;-69
2023/12/02 12:56:50;;;;;;;22.83;8.97;;;;;;;;;;4994705;28;20022;-70
2023/12/02 12:59:18;;;;;;;16.20;9.73;;;;;;;;;;4995533;28;20032;-70
2023/12/02 13:02:04;;;;;;;20.70;9.20;;;;;;;;;;4994799;28;20077;-72
2023/12/02 13:04:37;;;;;;;18.97;9.27;;;;;;;;;;4996892;28;20029;-69
2023/12/02 13:07:15;;;;;;;19.37;8.77;;;;;;;;;;4995888;28;20037;-68
2023/12/02 13:09:51;;;;;;;18.57;8.50;;;;;;;;;;5012254;28;20113;-69
2023/12/02 13:12:22;;;;;;;16.87;8.90;;;;;;;;;;5010356;28;20041;-70
2023/12/02 13:14:54;;;;;;;23.77;8.87;;;;;;;;;;5016700;28;20072;-71
2023/12/02 13:17:20;;;;;;;19.30;10.05;;;;;;;;;;5015389;28;20184;-71
2023/12/02 13:19:47;;;;;;;21.10;9.43;;;;;;;;;;5016727;28;20113;-70
2023/12/02 13:22:21;;;;;;;16.20;7.73;;;;;;;;;;5015713;28;20096;-72
2023/12/02 13:25:16;;;;;;;23.20;10.23;;;;;;;;;;4997891;28;20026;-70
2023/12/02 13:28:36;;;;;;;18.00;8.97;;;;;;;;;;4996216;28;20033;-69
2023/12/02 13:31:13;;;;;;;16.87;9.50;;;;;;;;;;4998104;28;20394;-69
2023/12/02 13:33:44;;;;;;;18.20;9.17;;;;;;;;;;5012165;28;20093;-71
2023/12/02 13:36:28;;;;;;;18.43;8.73;;;;;;;;;;5009298;28;20072;-71
2023/12/02 13:39:03;;;;;;;18.77;8.97;;;;;;;;;;5016365;28;20033;-71
2023/12/02 13:41:35;;;;;;;18.53;8.20;;;;;;;;;;5015950;28;20046;-73
2023/12/02 13:44:08;;;;;;;21.20;9.48;;;;;;;;;;5014931;28;20109;-71
2023/12/02 13:46:46;;;;;;;21.33;8.80;;;;;;;;;;5012462;28;20125;-72
2023/12/02 13:49:36;;;;;;;16.60;8.67;;;;;;;;;;4995971;28;20034;-70
2023/12/02 13:52:25;;;;;;;19.37;8.70;;;;;;;;;;5011861;28;20018;-70
2023/12/02 13:54:56;;;;;;;18.00;9.47;;;;;;;;;;4997173;28;20038;-73
2023/12/02 13:57:51;;;;;;;20.30;10.23;;;;;;;;;;4980842;28;20034;-71
2023/12/02 14:00:30;;;;;;;19.30;9.37;;;;;;;;;;4996263;28;20026;-69
2023/12/02 14:03:16;;;;;;;19.03;8.10;;;;;;;;;;4981722;28;20026;-71
2023/12/02 14:05:58;;;;;;;18.97;8.17;;;;;;;;;;4981712;28;20259;-70
2023/12/02 14:08:32;;;;;;;20.33;9.05;;;;;;;;;;4982148;28;20490;-70
2023/12/02 14:11:15;;;;;;;15.93;8.17;;;;;;;;;;4997325;28;20045;-70
2023/12/02 14:14:17;;;;;;;16.00;8.70;;;;;;;;;;4981140;28;20040;-69
2023/12/02 14:17:06;;;;;;;19.15;8.30;;;;;;;;;;4967012;28;20431;-70
2023/12/02 14:19:59;;;;;;;15.33;7.37;;;;;;;;;;4982065;28;20038;-71
2023/12/02 14:23:12;;;;;;;17.37;7.87;;;;;;;;;;4980361;28;20026;-71
2023/12/02 14:26:20;;;;;;;16.10;8.35;;;;;;;;;;4987196;28;20027;-71
2023/12/02 14:28:51;;;;;;;18.93;8.07;;;;;;;;;;5000502;28;20038;-71
2023/12/02 14:32:05;;;;;;;19.67;8.63;;;;;;;;;;5000840;28;20451;-72
2023/12/02 14:35:00;;;;;;;18.47;9.10;;;;;;;;;;4999263;28;20031;-70
2023/12/02 14:38:00;;;;;;;18.87;8.43;;;;;;;;;;5000394;28;20104;-70
2023/12/02 14:40:48;;;;;;;14.50;8.57;;;;;;;;;;4999531;28;20026;-70
2023/12/02 14:43:39;;;;;;;22.47;8.30;;;;;;;;;;4999130;28;20025;-70
2023/12/02 14:46:06;;;;;;;18.45;8.45;;;;;;;;;;4998729;28;20041;-73